Time;durP1;ratioP1;P1;durP2;ratioP2;P2;SDS_P1;SDS_P2;PMS_P1;PMS_P2;Temp;Humidity;BMP_temperature;BMP_pressure;BME280_temperature;BME280_humidity;BME280_pressure;Samples;Min_cycle;Max_cycle;Signal;HPM_P1;HPM_P2
2022/11/01 00:01:31;;;;;;;1999.90;999.90;;;18.40;99.90;;;;;;5092310;28;20503;-69
2022/11/01 00:03:57;;;;;;;1999.90;999.90;;;18.40;99.90;;;;;;5091970;28;20448;-69
2022/11/01 00:06:23;;;;;;;1999.90;999.90;;;18.40;99.90;;;;;;5095017;28;20164;-68
2022/11/01 00:08:49;;;;;;;1999.90;999.90;;;18.50;99.90;;;;;;5095873;28;20198;-69
2022/11/01 00:11:16;;;;;;;1999.90;999.90;;;18.30;99.90;;;;;;5096078;28;20403;-68
2022/11/01 00:13:44;;;;;;;1999.90;999.90;;;18.30;99.90;;;;;;5095942;28;20195;-68
2022/11/01 00:16:10;;;;;;;1999.90;999.90;;;18.20;99.90;;;;;;5095913;28;20418;-68
2022/11/01 00:18:36;;;;;;;1999.90;999.90;;;18.20;99.90;;;;;;5095814;28;20400;-68
2022/11/01 00:21:01;;;;;;;1999.90;999.90;;;18.20;99.90;;;;;;5095889;28;20233;-68
2022/11/01 00:23:27;;;;;;;1999.90;999.90;;;18.20;99.90;;;;;;5096045;28;20185;-69
2022/11/01 00:25:52;;;;;;;1999.90;999.90;;;18.20;99.90;;;;;;5096238;28;20250;-69
2022/11/01 00:28:18;;;;;;;1999.90;999.90;;;18.20;99.90;;;;;;5096135;28;20632;-69
2022/11/01 00:30:43;;;;;;;1999.90;999.90;;;18.20;99.90;;;;;;5095951;28;20175;-69
2022/11/01 00:33:09;;;;;;;1999.90;999.90;;;18.20;99.90;;;;;;5096110;28;20190;-69
2022/11/01 00:35:35;;;;;;;1999.90;999.90;;;18.30;99.90;;;;;;5096182;28;20167;-69
2022/11/01 00:38:02;;;;;;;1999.90;999.90;;;18.30;99.90;;;;;;5095956;28;20162;-69
2022/11/01 00:40:28;;;;;;;1999.90;999.90;;;18.30;99.90;;;;;;5095713;28;20495;-68
2022/11/01 00:42:53;;;;;;;1999.90;999.90;;;18.30;99.90;;;;;;5095464;28;20508;-68
2022/11/01 00:45:19;;;;;;;1999.90;999.90;;;18.30;99.90;;;;;;5095479;28;20546;-68
2022/11/01 00:47:48;;;;;;;1999.90;999.90;;;18.30;99.90;;;;;;5095499;28;20171;-69
2022/11/01 00:50:14;;;;;;;1999.90;999.90;;;18.20;99.90;;;;;;5095489;28;20184;-69
2022/11/01 00:52:39;;;;;;;1999.90;999.90;;;18.10;99.90;;;;;;5095220;28;20428;-69
2022/11/01 00:55:06;;;;;;;1999.90;999.90;;;18.20;99.90;;;;;;5095374;28;21018;-69
2022/11/01 00:57:31;;;;;;;1999.90;999.90;;;18.10;99.90;;;;;;5095476;28;20656;-68
2022/11/01 00:59:57;;;;;;;1999.90;999.90;;;18.10;99.90;;;;;;5095531;28;20454;-69
2022/11/01 01:02:22;;;;;;;1999.90;999.90;;;18.20;99.90;;;;;;5095461;28;20225;-69
2022/11/01 01:04:49;;;;;;;1999.90;999.90;;;18.10;99.90;;;;;;5095215;28;20170;-69
2022/11/01 01:07:16;;;;;;;1999.90;999.90;;;18.10;99.90;;;;;;5094917;28;20170;-69
2022/11/01 01:09:42;;;;;;;1999.90;999.90;;;18.10;99.90;;;;;;5095266;28;20400;-68
2022/11/01 01:12:08;;;;;;;1999.90;999.90;;;18.10;99.90;;;;;;5095066;28;20502;-68
2022/11/01 01:14:34;;;;;;;1999.90;999.90;;;18.00;99.90;;;;;;5094867;28;20440;-68
2022/11/01 01:17:00;;;;;;;1999.90;999.90;;;18.00;99.90;;;;;;5094868;28;20766;-69
2022/11/01 01:19:26;;;;;;;1999.90;999.90;;;18.00;99.90;;;;;;5095197;28;20504;-69
2022/11/01 01:21:52;;;;;;;1999.90;999.90;;;18.00;99.90;;;;;;5095017;28;20167;-69
2022/11/01 01:24:18;;;;;;;1999.90;999.90;;;18.00;99.90;;;;;;5077269;28;20412;-69
2022/11/01 01:26:43;;;;;;;1999.90;999.90;;;17.90;99.90;;;;;;5095044;28;20252;-69
2022/11/01 01:29:09;;;;;;;1999.90;999.90;;;17.90;99.90;;;;;;5094705;28;20168;-69
2022/11/01 01:31:34;;;;;;;1999.90;999.90;;;17.90;99.90;;;;;;5094941;28;20278;-69
2022/11/01 01:34:00;;;;;;;1999.90;999.90;;;17.90;99.90;;;;;;5094675;28;20195;-69
2022/11/01 01:36:25;;;;;;;1999.90;999.90;;;18.00;99.90;;;;;;5094895;28;20570;-69
2022/11/01 01:38:52;;;;;;;1999.90;999.90;;;17.90;99.90;;;;;;5094587;28;20171;-69
2022/11/01 01:44:22;;;;;;;1999.90;999.90;;;18.00;99.90;;;;;;5094664;28;20458;-68
2022/11/01 01:46:47;;;;;;;1999.90;999.90;;;18.10;99.90;;;;;;5093927;28;20503;-68
2022/11/01 01:49:13;;;;;;;1999.90;999.90;;;18.10;99.90;;;;;;5094158;28;20887;-68
2022/11/01 01:51:38;;;;;;;1999.90;999.90;;;18.10;99.90;;;;;;5094470;28;20211;-69
2022/11/01 01:54:04;;;;;;;1999.90;999.90;;;18.10;99.90;;;;;;5094656;28;20204;-69
2022/11/01 01:56:34;;;;;;;1999.90;999.90;;;18.10;99.90;;;;;;5094276;28;20507;-69
2022/11/01 01:59:08;;;;;;;1999.90;999.90;;;18.10;99.90;;;;;;5094209;28;20226;-69
2022/11/01 02:01:39;;;;;;;1999.90;999.90;;;18.10;99.90;;;;;;5094302;28;20405;-69
2022/11/01 02:04:13;;;;;;;1999.90;999.90;;;18.10;99.90;;;;;;5093990;28;20519;-69
2022/11/01 02:06:39;;;;;;;1999.90;999.90;;;18.20;99.90;;;;;;5093777;28;20411;-68
2022/11/01 02:09:06;;;;;;;1999.90;999.90;;;18.10;99.90;;;;;;5093963;28;20464;-69
2022/11/01 02:11:32;;;;;;;1999.90;999.90;;;18.10;99.90;;;;;;5094149;28;20414;-69
2022/11/01 02:13:58;;;;;;;1999.90;999.90;;;18.10;99.90;;;;;;5093819;28;20453;-69
2022/11/01 02:16:53;;;;;;;1999.90;999.90;;;18.10;99.90;;;;;;5093903;28;20162;-69
2022/11/01 02:19:56;;;;;;;1999.90;999.90;;;18.10;99.90;;;;;;5093750;28;20166;-68
2022/11/01 02:22:37;;;;;;;1999.90;999.90;;;18.10;99.90;;;;;;5093612;28;20419;-69
2022/11/01 02:25:21;;;;;;;1999.90;999.90;;;18.10;99.90;;;;;;5093760;28;20495;-69
2022/11/01 02:28:11;;;;;;;1999.90;999.90;;;18.10;99.90;;;;;;5092912;28;20442;-69
2022/11/01 02:31:03;;;;;;;1999.90;999.90;;;18.00;99.90;;;;;;5093689;28;20428;-69
2022/11/01 02:33:50;;;;;;;1999.90;999.90;;;18.10;99.90;;;;;;5093497;28;20499;-69
2022/11/01 02:36:27;;;;;;;1999.90;999.90;;;18.00;99.90;;;;;;5051888;28;20921;-69
2022/11/01 02:39:00;;;;;;;1999.90;999.90;;;18.00;99.90;;;;;;5093159;28;20812;-69
2022/11/01 02:41:39;;;;;;;1999.90;999.90;;;18.00;99.90;;;;;;5093405;28;20907;-69
2022/11/01 02:44:13;;;;;;;1999.90;999.90;;;18.00;99.90;;;;;;5093343;28;20442;-69
2022/11/01 02:47:00;;;;;;;1999.90;999.90;;;18.00;99.90;;;;;;5093206;28;20412;-69
2022/11/01 02:49:32;;;;;;;1999.90;999.90;;;17.90;99.90;;;;;;5093041;28;21015;-68
2022/11/01 02:52:00;;;;;;;1999.90;999.90;;;17.90;99.90;;;;;;5093313;28;20399;-69
2022/11/01 02:54:37;;;;;;;1999.90;999.90;;;17.90;99.90;;;;;;5093243;28;20448;-69
2022/11/01 02:57:26;;;;;;;1999.90;999.90;;;17.90;99.90;;;;;;5093110;28;20408;-68
2022/11/01 02:59:51;;;;;;;1999.90;999.90;;;17.90;99.90;;;;;;5074617;28;20935;-68
2022/11/01 03:02:38;;;;;;;1999.90;999.90;;;17.90;99.90;;;;;;5092678;28;20449;-69
2022/11/01 03:05:20;;;;;;;1999.90;999.90;;;17.90;99.90;;;;;;5092937;28;20637;-68
2022/11/01 03:07:50;;;;;;;1999.90;999.90;;;17.90;99.90;;;;;;5092681;28;20396;-69
2022/11/01 03:10:19;;;;;;;1999.90;999.90;;;17.90;99.90;;;;;;5092825;28;20407;-69
2022/11/01 03:13:03;;;;;;;1999.90;999.90;;;17.90;99.90;;;;;;5092775;28;20426;-69
2022/11/01 03:15:38;;;;;;;1999.90;999.90;;;17.90;99.90;;;;;;5092854;28;20396;-69
2022/11/01 03:18:12;;;;;;;1999.90;999.90;;;18.00;99.90;;;;;;5092529;28;20417;-68
2022/11/01 03:20:58;;;;;;;1999.90;999.90;;;18.00;99.90;;;;;;5134045;22;20484;-71
2022/11/01 03:23:41;;;;;;;1999.90;999.90;;;18.00;99.90;;;;;;5092584;28;20774;-71
2022/11/01 03:26:10;;;;;;;1999.90;999.90;;;18.00;99.90;;;;;;5092392;28;20912;-71
2022/11/01 03:28:41;;;;;;;1999.90;999.90;;;17.90;99.90;;;;;;5092370;28;20400;-71
2022/11/01 03:31:24;;;;;;;1999.90;999.90;;;18.00;99.90;;;;;;5092340;28;20893;-71
2022/11/01 03:34:02;;;;;;;1999.90;999.90;;;18.00;99.90;;;;;;5092288;28;20466;-71
2022/11/01 03:36:37;;;;;;;1999.90;999.90;;;18.00;99.90;;;;;;5092354;28;20410;-71
2022/11/01 03:39:12;;;;;;;1999.90;999.90;;;18.00;99.90;;;;;;5091804;28;20463;-71
2022/11/01 03:41:45;;;;;;;1999.90;999.90;;;18.00;99.90;;;;;;5091839;28;20893;-71
2022/11/01 03:44:12;;;;;;;1999.90;999.90;;;18.00;99.90;;;;;;5092245;28;20817;-71
2022/11/01 03:46:39;;;;;;;1999.90;999.90;;;18.00;99.90;;;;;;5091953;28;20436;-71
2022/11/01 03:49:05;;;;;;;1999.90;999.90;;;18.00;99.90;;;;;;5092052;28;20397;-71
2022/11/01 03:51:30;;;;;;;1999.90;999.90;;;18.00;99.90;;;;;;5092039;28;20526;-71
2022/11/01 03:53:56;;;;;;;1999.90;999.90;;;18.10;99.90;;;;;;5091988;28;20711;-71
2022/11/01 03:56:22;;;;;;;1999.90;999.90;;;18.10;99.90;;;;;;5092043;28;20173;-71
2022/11/01 03:58:47;;;;;;;1999.90;999.90;;;18.10;99.90;;;;;;5091901;28;20177;-71
2022/11/01 04:01:15;;;;;;;1999.90;999.90;;;18.00;99.90;;;;;;5091977;28;20189;-71
2022/11/01 04:03:41;;;;;;;1999.90;999.90;;;18.10;99.90;;;;;;5092089;28;20174;-71
2022/11/01 04:06:07;;;;;;;1999.90;999.90;;;18.00;99.90;;;;;;5091928;28;20925;-71
2022/11/01 04:08:32;;;;;;;1999.90;999.90;;;18.00;99.90;;;;;;5091958;28;20407;-71
2022/11/01 04:10:58;;;;;;;1999.90;999.90;;;18.00;99.90;;;;;;5093140;28;20197;-72
2022/11/01 04:13:24;;;;;;;1999.90;999.90;;;18.00;99.90;;;;;;5092939;28;20213;-72
2022/11/01 04:21:20;;;;;;;1999.90;999.90;;;17.90;99.90;;;;;;5092640;28;20450;-72
2022/11/01 04:23:46;;;;;;;1999.90;999.90;;;17.90;99.90;;;;;;5092691;28;20437;-72
2022/11/01 04:26:14;;;;;;;1999.90;999.90;;;17.80;99.90;;;;;;5091919;28;20407;-71
2022/11/01 04:28:40;;;;;;;1999.90;999.90;;;17.90;99.90;;;;;;5091628;28;20936;-71
2022/11/01 04:31:06;;;;;;;1999.90;999.90;;;18.00;99.90;;;;;;5091760;28;20425;-71
2022/11/01 04:33:32;;;;;;;1999.90;999.90;;;18.00;99.90;;;;;;5091635;28;20443;-71
2022/11/01 04:36:02;;;;;;;1999.90;999.90;;;18.00;99.90;;;;;;5091866;28;20494;-71
2022/11/01 04:38:27;;;;;;;1999.90;999.90;;;17.90;99.90;;;;;;5091584;28;20642;-71
2022/11/01 04:40:53;;;;;;;1999.90;999.90;;;17.90;99.90;;;;;;5091655;28;20509;-71
2022/11/01 04:43:21;;;;;;;1999.90;999.90;;;18.00;99.90;;;;;;5091697;28;20258;-71
2022/11/01 04:45:53;;;;;;;1999.90;999.90;;;18.00;99.90;;;;;;5091647;28;20176;-71
2022/11/01 04:48:19;;;;;;;1999.90;999.90;;;17.90;99.90;;;;;;5091351;28;20427;-71
2022/11/01 04:50:46;;;;;;;1999.90;999.90;;;17.90;99.90;;;;;;5091943;28;20434;-70
2022/11/01 04:53:12;;;;;;;1999.90;999.90;;;18.00;99.90;;;;;;5095702;28;20678;-71
2022/11/01 04:55:37;;;;;;;1999.90;999.90;;;18.10;99.90;;;;;;5095370;28;20402;-71
2022/11/01 04:58:03;;;;;;;1999.90;999.90;;;18.10;99.90;;;;;;5094999;28;20404;-71
2022/11/01 05:00:31;;;;;;;1999.90;999.90;;;18.10;99.90;;;;;;5095135;28;20179;-71
2022/11/01 05:03:01;;;;;;;1999.90;999.90;;;18.10;99.90;;;;;;5095091;28;20411;-71
2022/11/01 05:05:27;;;;;;;1999.90;999.90;;;18.10;99.90;;;;;;5095133;28;20496;-71
2022/11/01 05:08:10;;;;;;;1999.90;999.90;;;18.10;99.90;;;;;;5094793;28;20481;-71
2022/11/01 05:10:38;;;;;;;1999.90;999.90;;;18.10;99.90;;;;;;5095049;28;20212;-71
2022/11/01 05:13:04;;;;;;;1999.90;999.90;;;18.10;99.90;;;;;;5094984;28;20441;-71
2022/11/01 05:15:30;;;;;;;1999.90;999.90;;;18.10;99.90;;;;;;5094940;28;20412;-71
2022/11/01 05:17:58;;;;;;;1999.90;999.90;;;18.10;99.90;;;;;;5094682;28;20399;-71
2022/11/01 05:20:24;;;;;;;1999.90;999.90;;;18.10;99.90;;;;;;5094651;28;20436;-71
2022/11/01 05:22:50;;;;;;;1999.90;999.90;;;18.00;99.90;;;;;;5095395;28;20936;-72
2022/11/01 05:25:16;;;;;;;1999.90;999.90;;;17.90;99.90;;;;;;5094962;28;20406;-71
2022/11/01 05:27:42;;;;;;;1999.90;999.90;;;17.90;99.90;;;;;;5095056;28;20170;-71
2022/11/01 05:30:09;;;;;;;1999.90;999.90;;;17.80;99.90;;;;;;5095787;28;20403;-70
2022/11/01 05:32:34;;;;;;;1999.90;999.90;;;17.70;99.90;;;;;;5094849;28;20227;-70
2022/11/01 05:35:01;;;;;;;1999.90;999.90;;;17.60;99.90;;;;;;5094623;28;20908;-70
2022/11/01 05:37:27;;;;;;;1999.90;999.90;;;17.60;99.90;;;;;;5094485;28;20620;-70
2022/11/01 05:39:52;;;;;;;1999.90;999.90;;;17.60;99.90;;;;;;5094584;28;20400;-70
2022/11/01 05:42:18;;;;;;;1999.90;999.90;;;17.60;99.90;;;;;;5094592;28;20552;-70
2022/11/01 05:44:43;;;;;;;1999.90;999.90;;;17.50;99.90;;;;;;5094429;28;20194;-70
2022/11/01 05:47:09;;;;;;;1999.90;999.90;;;17.50;99.90;;;;;;5094424;28;20254;-70
2022/11/01 05:49:34;;;;;;;1999.90;999.90;;;17.50;99.90;;;;;;5094375;28;20169;-70
2022/11/01 05:52:00;;;;;;;1999.90;999.90;;;17.50;99.90;;;;;;5094344;28;20202;-70
2022/11/01 05:54:25;;;;;;;1999.90;999.90;;;17.50;99.90;;;;;;5094154;28;20278;-70
2022/11/01 05:56:51;;;;;;;1999.90;999.90;;;17.40;99.90;;;;;;5094006;28;20183;-70
2022/11/01 05:59:17;;;;;;;1999.90;999.90;;;17.40;99.90;;;;;;5094150;28;20210;-70
2022/11/01 06:01:42;;;;;;;1999.90;999.90;;;17.30;99.90;;;;;;5093995;28;20196;-70
2022/11/01 06:04:08;;;;;;;1999.90;999.90;;;17.20;99.90;;;;;;5093321;28;20181;-70
2022/11/01 06:06:33;;;;;;;1999.90;999.90;;;17.20;99.90;;;;;;5093984;28;20260;-70
2022/11/01 06:08:59;;;;;;;1999.90;999.90;;;17.20;99.90;;;;;;5093831;28;20174;-70
2022/11/01 06:11:26;;;;;;;1999.90;999.90;;;17.20;99.90;;;;;;5094011;28;20679;-71
2022/11/01 06:13:56;;;;;;;1999.90;999.90;;;17.10;99.90;;;;;;5094054;28;20288;-70
2022/11/01 06:16:24;;;;;;;1999.90;999.90;;;17.00;99.90;;;;;;5093838;28;20405;-70
2022/11/01 06:18:49;;;;;;;1999.90;999.90;;;16.90;99.90;;;;;;5094103;28;20406;-70
2022/11/01 06:21:15;;;;;;;1999.90;999.90;;;16.70;99.90;;;;;;5093809;28;20992;-70
2022/11/01 06:23:44;;;;;;;1999.90;999.90;;;16.60;99.90;;;;;;5093988;28;20170;-70
2022/11/01 06:26:10;;;;;;;1999.90;999.90;;;16.50;99.90;;;;;;5093957;28;20250;-70
2022/11/01 06:28:36;;;;;;;1999.90;999.90;;;16.50;99.90;;;;;;5093670;28;20432;-70
2022/11/01 06:31:02;;;;;;;1999.90;999.90;;;16.40;99.90;;;;;;5094002;28;20239;-70
2022/11/01 06:33:29;;;;;;;1999.90;999.90;;;16.30;99.90;;;;;;5094393;28;20685;-70
2022/11/01 06:35:55;;;;;;;1999.90;999.90;;;16.20;99.90;;;;;;5093537;28;20824;-70
2022/11/01 06:38:21;;;;;;;1999.90;999.90;;;16.20;99.90;;;;;;5093327;28;20435;-70
2022/11/01 06:40:46;;;;;;;1999.90;999.90;;;16.10;99.90;;;;;;5093433;28;20180;-70
2022/11/01 06:43:12;;;;;;;1999.90;999.90;;;16.00;99.90;;;;;;5093747;28;20629;-70
2022/11/01 06:45:37;;;;;;;1999.90;999.90;;;15.90;99.90;;;;;;5094102;28;20246;-70
2022/11/01 06:48:04;;;;;;;1999.90;999.90;;;15.80;99.90;;;;;;5093970;28;20603;-70
2022/11/01 06:50:30;;;;;;;1999.90;999.90;;;15.80;99.90;;;;;;5094100;28;20607;-70
2022/11/01 06:52:57;;;;;;;1999.90;999.90;;;15.70;99.90;;;;;;5093992;28;20456;-71
2022/11/01 06:55:24;;;;;;;1999.90;999.90;;;15.60;99.90;;;;;;5094167;28;20403;-70
2022/11/01 06:57:58;;;;;;;1999.90;999.90;;;15.50;99.90;;;;;;5093751;28;20400;-71
2022/11/01 07:00:25;;;;;;;1999.90;999.90;;;15.50;99.90;;;;;;5093797;28;20495;-70
2022/11/01 07:03:03;;;;;;;1999.90;999.90;;;15.40;99.90;;;;;;5093720;28;20436;-70
2022/11/01 07:05:29;;;;;;;1999.90;999.90;;;15.30;99.90;;;;;;5094004;28;20926;-70
2022/11/01 07:07:55;;;;;;;1999.90;999.90;;;15.30;99.90;;;;;;5093690;28;20398;-70
2022/11/01 07:10:21;;;;;;;1999.90;999.90;;;15.20;99.90;;;;;;5093570;28;20417;-70
2022/11/01 07:12:46;;;;;;;1999.90;999.90;;;15.20;99.90;;;;;;5093359;28;20194;-70
2022/11/01 07:15:12;;;;;;;1999.90;999.90;;;15.10;99.90;;;;;;5093474;28;20935;-70
2022/11/01 07:17:38;;;;;;;1999.90;999.90;;;15.10;99.90;;;;;;5093708;28;20393;-70
2022/11/01 07:20:04;;;;;;;1999.90;999.90;;;15.00;99.90;;;;;;5093144;28;20635;-70
2022/11/01 07:22:29;;;;;;;1999.90;999.90;;;15.00;99.90;;;;;;5093788;28;20760;-70
2022/11/01 07:24:55;;;;;;;1999.90;999.90;;;14.90;99.90;;;;;;5093495;28;20407;-70
2022/11/01 07:27:21;;;;;;;1999.90;999.90;;;14.80;99.90;;;;;;5093260;28;20177;-70
2022/11/01 07:29:46;;;;;;;1999.90;999.90;;;14.70;99.90;;;;;;5093335;28;20260;-70
2022/11/01 07:32:12;;;;;;;1999.90;999.90;;;14.70;99.90;;;;;;5093071;28;20726;-71
2022/11/01 07:34:37;;;;;;;1999.90;999.90;;;14.60;99.90;;;;;;5092554;28;20604;-70
2022/11/01 07:37:03;;;;;;;1999.90;999.90;;;14.60;99.90;;;;;;5092097;28;20163;-70
2022/11/01 07:39:29;;;;;;;1999.90;999.90;;;14.60;99.90;;;;;;5092171;28;20177;-70
2022/11/01 07:41:54;;;;;;;1999.90;999.90;;;14.60;99.90;;;;;;5092211;28;20191;-70
2022/11/01 07:44:20;;;;;;;1999.90;999.90;;;14.60;99.90;;;;;;5092300;28;20219;-70
2022/11/01 07:46:45;;;;;;;1999.90;999.90;;;14.50;99.90;;;;;;5092093;28;20778;-70
2022/11/01 07:49:11;;;;;;;1999.90;999.90;;;14.50;99.90;;;;;;5092160;28;20170;-70
2022/11/01 07:51:37;;;;;;;1999.90;999.90;;;14.50;99.90;;;;;;5092027;28;20186;-70
2022/11/01 07:54:02;;;;;;;1999.90;999.90;;;14.50;99.90;;;;;;5092322;28;20251;-70
2022/11/01 07:56:28;;;;;;;1999.90;999.90;;;14.60;99.90;;;;;;5092025;28;20725;-70
2022/11/01 07:58:53;;;;;;;1999.90;999.90;;;14.60;99.90;;;;;;5091883;28;20673;-70
2022/11/01 08:01:19;;;;;;;1999.90;999.90;;;14.60;99.90;;;;;;5093523;28;20698;-71
2022/11/01 08:03:45;;;;;;;1999.90;999.90;;;14.60;99.90;;;;;;5093751;28;20575;-71
2022/11/01 08:06:10;;;;;;;1999.90;999.90;;;14.70;99.90;;;;;;5092894;28;20163;-71
2022/11/01 08:08:36;;;;;;;1999.90;999.90;;;14.70;99.90;;;;;;5091819;28;20163;-70
2022/11/01 08:11:01;;;;;;;1999.90;999.90;;;14.70;99.90;;;;;;5091920;28;20203;-70
2022/11/01 08:13:28;;;;;;;1999.90;999.90;;;14.70;99.90;;;;;;5091773;28;20191;-70
2022/11/01 08:15:54;;;;;;;1999.90;999.90;;;14.70;99.90;;;;;;5091843;28;20163;-70
2022/11/01 08:18:23;;;;;;;1999.90;999.90;;;14.70;99.90;;;;;;5091698;28;20900;-70
2022/11/01 08:20:49;;;;;;;1999.90;999.90;;;14.80;99.90;;;;;;5091649;28;20438;-70
2022/11/01 08:23:14;;;;;;;1999.90;999.90;;;14.80;99.90;;;;;;5091873;28;20439;-70
2022/11/01 08:25:40;;;;;;;1999.90;999.90;;;14.80;99.90;;;;;;5092298;28;20412;-70
2022/11/01 08:28:09;;;;;;;1999.90;999.90;;;14.80;99.90;;;;;;5096422;28;20167;-71
2022/11/01 08:30:36;;;;;;;1999.90;999.90;;;14.90;99.90;;;;;;5096876;28;20593;-70
2022/11/01 08:33:03;;;;;;;1999.90;999.90;;;14.90;99.90;;;;;;5096621;28;20453;-70
2022/11/01 08:35:29;;;;;;;1999.90;999.90;;;14.90;99.90;;;;;;5096904;28;20504;-70
2022/11/01 08:37:55;;;;;;;1999.90;999.90;;;14.90;99.90;;;;;;5096783;28;20457;-70
2022/11/01 08:40:21;;;;;;;1999.90;999.90;;;14.90;99.90;;;;;;5096452;28;20431;-70
2022/11/01 08:42:47;;;;;;;1999.90;999.90;;;14.90;99.90;;;;;;5095794;28;20412;-70
2022/11/01 08:45:13;;;;;;;1999.90;999.90;;;14.90;99.90;;;;;;5095438;28;20453;-70
2022/11/01 08:47:40;;;;;;;1999.90;999.90;;;15.00;99.90;;;;;;5095097;28;20413;-71
2022/11/01 08:50:07;;;;;;;1999.90;999.90;;;15.00;99.90;;;;;;5095148;28;20442;-71
2022/11/01 08:52:33;;;;;;;1999.90;999.90;;;15.00;99.90;;;;;;5095296;28;20396;-70
2022/11/01 08:54:59;;;;;;;1999.90;999.90;;;15.00;99.90;;;;;;5077831;28;20453;-70
2022/11/01 08:57:24;;;;;;;1999.90;999.90;;;15.00;99.90;;;;;;5095799;28;20172;-70
2022/11/01 08:59:50;;;;;;;1999.90;999.90;;;15.00;99.90;;;;;;5095279;28;20628;-71
2022/11/01 09:02:15;;;;;;;1999.90;999.90;;;15.10;99.90;;;;;;5095431;28;20187;-70
2022/11/01 09:04:41;;;;;;;1999.90;999.90;;;15.10;99.90;;;;;;5095232;28;20162;-70
2022/11/01 09:07:07;;;;;;;1999.90;999.90;;;15.20;99.90;;;;;;5094911;28;20203;-70
2022/11/01 09:09:32;;;;;;;1999.90;999.90;;;15.20;99.90;;;;;;5095046;28;20524;-70
2022/11/01 09:11:58;;;;;;;1999.90;999.90;;;15.30;99.90;;;;;;5095061;28;20563;-70
2022/11/01 09:14:25;;;;;;;1999.90;999.90;;;15.30;99.90;;;;;;5094960;28;20636;-70
2022/11/01 09:16:51;;;;;;;1999.90;999.90;;;15.40;99.90;;;;;;5094701;28;20176;-70
2022/11/01 09:19:17;;;;;;;1999.90;999.90;;;15.50;99.90;;;;;;5094783;28;20419;-70
2022/11/01 09:21:43;;;;;;;1999.90;999.90;;;15.60;99.90;;;;;;5094954;28;20452;-70
2022/11/01 09:24:13;;;;;;;1999.90;999.90;;;15.60;99.90;;;;;;5094838;28;20412;-70
2022/11/01 09:26:39;;;;;;;1999.90;999.90;;;15.70;99.90;;;;;;5094412;28;20425;-70
2022/11/01 09:29:05;;;;;;;1999.90;999.90;;;15.70;99.90;;;;;;5094703;28;20412;-70
2022/11/01 09:31:32;;;;;;;1999.90;999.90;;;15.70;99.90;;;;;;5094578;28;20205;-70
2022/11/01 09:33:59;;;;;;;1999.90;999.90;;;15.80;99.90;;;;;;5094733;28;20455;-70
2022/11/01 09:36:26;;;;;;;1999.90;999.90;;;15.80;99.90;;;;;;5094429;28;20405;-70
2022/11/01 09:38:52;;;;;;;1999.90;999.90;;;15.90;99.90;;;;;;5092963;28;20400;-70
2022/11/01 09:41:31;;;;;;;1999.90;999.90;;;16.00;99.90;;;;;;5094650;28;20506;-70
2022/11/01 09:44:00;;;;;;;1999.90;999.90;;;16.00;99.90;;;;;;5094343;28;20405;-70
2022/11/01 09:46:30;;;;;;;1999.90;999.90;;;16.10;99.90;;;;;;5094348;28;20410;-70
2022/11/01 09:48:59;;;;;;;1999.90;999.90;;;16.20;99.90;;;;;;5094176;28;20405;-70
2022/11/01 09:51:25;;;;;;;1999.90;999.90;;;16.20;99.90;;;;;;5094245;28;20420;-71
2022/11/01 09:53:56;;;;;;;1999.90;999.90;;;16.40;99.90;;;;;;5094082;28;20846;-70
2022/11/01 09:56:31;;;;;;;1999.90;999.90;;;16.50;99.90;;;;;;5094055;28;20772;-70
2022/11/01 09:59:54;;;;;;;1999.90;999.90;;;16.50;99.90;;;;;;5094028;28;20534;-70
2022/11/01 10:02:47;;;;;;;1999.90;999.90;;;16.50;99.90;;;;;;5011811;28;20434;-70
2022/11/01 10:05:35;;;;;;;1999.90;999.90;;;16.50;99.90;;;;;;4990066;28;20450;-70
2022/11/01 10:08:06;;;;;;;1999.90;999.90;;;16.60;99.90;;;;;;5088070;28;20461;-70
2022/11/01 10:10:56;;;;;;;1999.90;999.90;;;16.60;99.90;;;;;;5093769;28;20911;-70
2022/11/01 10:13:58;;;;;;;1999.90;999.90;;;16.60;99.90;;;;;;5093684;28;20449;-70
2022/11/01 10:16:40;;;;;;;1999.90;999.90;;;16.60;99.90;;;;;;5093725;28;20965;-70
2022/11/01 10:19:21;;;;;;;1999.90;999.90;;;16.70;99.90;;;;;;5093570;28;20967;-69
2022/11/01 10:21:49;;;;;;;1999.90;999.90;;;16.60;99.90;;;;;;5093423;28;20822;-70
2022/11/01 10:24:30;;;;;;;1999.90;999.90;;;16.70;99.90;;;;;;5093764;28;20494;-70
2022/11/01 10:27:29;;;;;;;1999.90;999.90;;;16.80;99.90;;;;;;5093368;28;20407;-70
2022/11/01 10:30:13;;;;;;;1999.90;999.90;;;16.90;99.90;;;;;;5089376;28;20432;-70
2022/11/01 10:32:46;;;;;;;1999.90;999.90;;;16.90;99.90;;;;;;5094125;28;20417;-72
2022/11/01 10:35:18;;;;;;;1999.90;999.90;;;17.00;99.90;;;;;;5095433;28;20517;-71
2022/11/01 10:37:54;;;;;;;1999.90;999.90;;;17.10;99.90;;;;;;5094503;28;20456;-71
2022/11/01 10:40:32;;;;;;;1999.90;999.90;;;17.30;99.90;;;;;;5094692;28;20423;-71
2022/11/01 10:42:59;;;;;;;1999.90;999.90;;;17.20;99.90;;;;;;5094675;28;20888;-71
2022/11/01 10:45:24;;;;;;;1999.90;999.90;;;17.20;99.90;;;;;;5094725;28;20428;-71
2022/11/01 10:47:57;;;;;;;1999.90;999.90;;;17.30;99.90;;;;;;5094889;28;20403;-71
2022/11/01 10:50:28;;;;;;;1999.90;999.90;;;17.20;99.90;;;;;;5093984;28;20276;-71
2022/11/01 10:53:10;;;;;;;1999.90;999.90;;;17.20;99.90;;;;;;5094779;28;20423;-71
2022/11/01 10:55:53;;;;;;;1999.90;999.90;;;17.20;99.90;;;;;;5090696;28;20770;-71
2022/11/01 10:58:41;;;;;;;1999.90;999.90;;;17.30;99.90;;;;;;5093390;28;20764;-71
2022/11/01 11:01:13;;;;;;;1999.90;999.90;;;17.40;99.90;;;;;;5093441;28;20797;-71
2022/11/01 11:03:40;;;;;;;1999.90;999.90;;;17.40;99.90;;;;;;5092797;28;20502;-70
2022/11/01 11:06:10;;;;;;;1999.90;999.90;;;17.50;99.90;;;;;;5093227;28;20463;-70
2022/11/01 11:08:40;;;;;;;1999.90;999.90;;;17.40;99.90;;;;;;5092882;28;20407;-70
2022/11/01 11:11:14;;;;;;;1999.90;999.90;;;17.50;99.90;;;;;;5092349;28;20518;-70
2022/11/01 11:13:49;;;;;;;1999.90;999.90;;;17.70;99.90;;;;;;5092783;28;20459;-70
2022/11/01 11:16:43;;;;;;;1999.90;999.90;;;18.00;99.90;;;;;;5092357;28;20410;-70
2022/11/01 11:19:31;;;;;;;1999.90;999.90;;;18.50;99.90;;;;;;5076691;28;20762;-68
2022/11/01 11:21:58;;;;;;;1999.90;999.90;;;19.30;99.90;;;;;;5091715;28;20451;-71
2022/11/01 11:24:25;;;;;;;1999.90;999.90;;;19.70;98.70;;;;;;5093800;28;20454;-69
2022/11/01 11:26:54;;;;;;;1999.90;999.90;;;20.00;94.90;;;;;;5093961;28;20412;-68
2022/11/01 11:29:59;;;;;;;1999.90;999.90;;;20.20;94.20;;;;;;5092929;28;20878;-68
2022/11/01 11:32:37;;;;;;;1999.90;999.90;;;20.60;90.30;;;;;;5094112;28;20395;-68
2022/11/01 11:35:16;;;;;;;1999.90;999.90;;;20.70;84.70;;;;;;5092505;28;20547;-68
2022/11/01 11:38:02;;;;;;;1999.90;999.90;;;20.80;80.10;;;;;;5092577;28;20399;-68
2022/11/01 11:40:37;;;;;;;1999.90;999.90;;;20.90;82.70;;;;;;5091981;28;20940;-69
2022/11/01 11:43:29;;;;;;;1999.90;999.90;;;21.20;84.60;;;;;;5092746;28;20794;-68
2022/11/01 11:46:05;;;;;;;1999.90;999.90;;;21.60;71.30;;;;;;5093976;28;20408;-68
2022/11/01 11:48:31;;;;;;;1999.90;999.90;;;21.60;68.50;;;;;;5092970;28;20405;-69
2022/11/01 11:51:02;;;;;;;1999.90;999.90;;;21.60;65.40;;;;;;5093209;28;20420;-70
2022/11/01 11:53:28;;;;;;;1999.90;999.90;;;21.60;61.60;;;;;;5092568;28;20449;-70
2022/11/01 11:55:57;;;;;;;1999.90;999.90;;;21.90;60.60;;;;;;5092875;28;20943;-70
2022/11/01 11:58:40;;;;;;;1999.90;999.90;;;22.10;57.80;;;;;;5092076;28;20417;-70
2022/11/01 12:01:17;;;;;;;1999.90;999.90;;;22.40;55.30;;;;;;5083440;28;20498;-70
2022/11/01 12:03:49;;;;;;;1999.90;999.90;;;22.30;52.20;;;;;;5093771;28;20404;-67
2022/11/01 12:06:27;;;;;;;1999.90;999.90;;;22.00;51.50;;;;;;5093934;28;20416;-66
2022/11/01 12:08:58;;;;;;;1999.90;999.90;;;21.70;51.70;;;;;;5094992;28;20406;-68
2022/11/01 12:11:35;;;;;;;1999.90;999.90;;;21.70;51.10;;;;;;5095433;28;20522;-68
2022/11/01 12:14:04;;;;;;;1999.90;999.90;;;21.60;51.80;;;;;;5095735;28;20835;-69
2022/11/01 12:16:41;;;;;;;1999.90;999.90;;;21.80;52.70;;;;;;5090883;28;20435;-69
2022/11/01 12:19:30;;;;;;;1999.90;999.90;;;21.90;50.70;;;;;;5091772;28;20401;-69
2022/11/01 12:22:00;;;;;;;1999.90;999.90;;;22.10;50.60;;;;;;5092285;28;20941;-68